createdAt,value
2023-05-09T00:02:08.211Z,2.35
2023-05-09T00:04:35.366Z,2.28
2023-05-09T00:07:02.174Z,1.80
2023-05-09T00:09:28.803Z,2.45
2023-05-09T00:11:55.478Z,3.47
2023-05-09T00:14:22.082Z,2.35
2023-05-09T00:16:49.201Z,2.63
2023-05-09T00:19:15.974Z,2.60
2023-05-09T00:21:42.662Z,2.95
2023-05-09T00:24:09.315Z,2.30
2023-05-09T00:26:35.973Z,2.78
2023-05-09T00:29:02.703Z,3.17
2023-05-09T00:31:29.451Z,2.90
2023-05-09T00:33:56.183Z,3.03
2023-05-09T00:36:23.313Z,3.38
2023-05-09T00:38:50.097Z,3.00
2023-05-09T00:41:16.769Z,3.17
2023-05-09T00:43:43.535Z,3.28
2023-05-09T00:46:10.331Z,3.85
2023-05-09T00:48:37.142Z,3.40
2023-05-09T00:51:04.874Z,4.20
2023-05-09T00:53:31.665Z,3.50
2023-05-09T00:55:59.996Z,3.30
2023-05-09T00:58:27.181Z,3.40
2023-05-09T01:00:53.917Z,3.85
2023-05-09T01:03:20.837Z,3.42
2023-05-09T01:06:07.273Z,4.00
2023-05-09T01:08:59.623Z,3.67
2023-05-09T01:11:36.791Z,3.90
2023-05-09T01:14:12.650Z,3.67
2023-05-09T01:16:58.929Z,3.63
2023-05-09T01:19:41.077Z,3.28
2023-05-09T01:22:11.553Z,3.88
2023-05-09T01:25:27.586Z,3.30
2023-05-09T01:27:58.496Z,2.92
2023-05-09T01:30:26.732Z,4.07
2023-05-09T01:32:59.287Z,3.70
2023-05-09T01:35:29.290Z,3.05
2023-05-09T01:37:57.771Z,3.63
2023-05-09T01:40:29.751Z,3.50
2023-05-09T01:43:01.249Z,3.80
2023-05-09T01:45:29.112Z,3.33
2023-05-09T01:47:57.533Z,3.40
2023-05-09T01:50:25.199Z,3.45
2023-05-09T01:52:55.925Z,3.22
2023-05-09T01:55:26.917Z,3.45
2023-05-09T01:57:54.525Z,3.60
2023-05-09T02:00:22.968Z,3.63
2023-05-09T02:02:50.713Z,3.13
2023-05-09T02:05:18.260Z,3.33
2023-05-09T02:07:47.214Z,3.45
2023-05-09T02:10:16.208Z,3.70
2023-05-09T02:12:43.230Z,4.25
2023-05-09T02:15:10.261Z,3.75
2023-05-09T02:17:37.226Z,3.50
2023-05-09T02:20:05.317Z,3.83
2023-05-09T02:22:32.122Z,3.45
2023-05-09T02:24:58.995Z,3.35
2023-05-09T02:27:27.151Z,3.60
2023-05-09T02:29:56.415Z,3.58
2023-05-09T02:32:27.142Z,3.38
2023-05-09T02:34:55.768Z,3.33
2023-05-09T02:37:23.455Z,3.83
2023-05-09T02:39:50.252Z,3.20
2023-05-09T02:42:21.562Z,3.50
2023-05-09T02:44:48.401Z,3.65
2023-05-09T02:47:15.166Z,3.75
2023-05-09T02:49:41.885Z,4.43
2023-05-09T02:52:08.804Z,3.80
2023-05-09T02:54:35.528Z,4.05
2023-05-09T02:57:02.239Z,3.65
2023-05-09T02:59:29.085Z,4.10
2023-05-09T03:01:56.017Z,3.70
2023-05-09T03:04:23.032Z,4.40
2023-05-09T03:06:49.744Z,3.70
2023-05-09T03:09:16.717Z,3.95
2023-05-09T03:11:43.573Z,3.97
2023-05-09T03:14:11.254Z,4.03
2023-05-09T03:16:37.995Z,3.30
2023-05-09T03:19:04.740Z,3.08
2023-05-09T03:21:32.142Z,2.65
2023-05-09T03:23:59.035Z,3.10
2023-05-09T03:26:26.552Z,2.78
2023-05-09T03:28:53.290Z,2.55
2023-05-09T03:31:20.055Z,3.08
2023-05-09T03:33:46.891Z,2.63
2023-05-09T03:36:14.219Z,2.60
2023-05-09T03:38:41.069Z,2.50
2023-05-09T03:41:07.851Z,2.90
2023-05-09T03:43:34.604Z,2.55
2023-05-09T03:46:01.316Z,2.20
2023-05-09T03:48:28.048Z,2.35
2023-05-09T03:50:54.901Z,2.45
2023-05-09T03:53:22.908Z,2.53
2023-05-09T03:55:49.845Z,2.17
2023-05-09T03:58:16.605Z,2.67
2023-05-09T04:00:43.369Z,3.03
2023-05-09T04:03:10.467Z,2.78
2023-05-09T04:05:37.653Z,2.33
2023-05-09T04:08:05.014Z,2.97
2023-05-09T04:10:32.697Z,3.33
2023-05-09T04:12:59.489Z,2.90
2023-05-09T04:15:26.336Z,2.30
2023-05-09T04:17:53.046Z,2.65
2023-05-09T04:20:19.881Z,2.83
2023-05-09T04:22:47.299Z,3.38
2023-05-09T04:25:14.965Z,3.30
2023-05-09T04:27:41.836Z,2.90
2023-05-09T04:30:09.380Z,3.10
2023-05-09T04:32:36.882Z,3.10
2023-05-09T04:35:04.173Z,2.92
2023-05-09T04:37:32.656Z,2.63
2023-05-09T04:39:59.429Z,2.67
2023-05-09T04:42:26.266Z,2.40
2023-05-09T04:44:53.392Z,2.75
2023-05-09T04:47:20.136Z,2.78
2023-05-09T04:49:46.922Z,2.65
2023-05-09T04:52:13.648Z,2.80
2023-05-09T04:54:40.345Z,2.70
2023-05-09T04:57:17.309Z,2.78
2023-05-09T04:59:44.964Z,2.88
2023-05-09T05:02:11.720Z,2.88
2023-05-09T05:04:38.551Z,2.88
2023-05-09T05:07:05.325Z,2.90
2023-05-09T05:09:32.081Z,3.33
2023-05-09T05:12:02.455Z,3.38
2023-05-09T05:14:29.880Z,2.80
2023-05-09T05:16:56.630Z,3.25
2023-05-09T05:19:23.374Z,2.88
2023-05-09T05:21:50.040Z,2.75
2023-05-09T05:24:16.773Z,2.58
2023-05-09T05:26:43.595Z,3.58
2023-05-09T05:29:10.257Z,2.97
2023-05-09T05:31:37.100Z,2.67
2023-05-09T05:34:03.902Z,3.35
2023-05-09T05:36:31.690Z,3.28
2023-05-09T05:38:58.546Z,3.30
2023-05-09T05:41:27.128Z,3.08
2023-05-09T05:43:54.505Z,3.60
2023-05-09T05:46:21.499Z,3.10
2023-05-09T05:48:48.375Z,3.65
2023-05-09T05:51:15.090Z,2.80
2023-05-09T05:53:42.182Z,3.13
2023-05-09T05:56:08.900Z,3.15
2023-05-09T05:58:35.555Z,2.80
2023-05-09T06:01:02.552Z,3.17
2023-05-09T06:03:29.383Z,3.20
2023-05-09T06:05:56.667Z,3.00
2023-05-09T06:08:23.501Z,2.90
2023-05-09T06:10:50.254Z,2.90
2023-05-09T06:13:17.093Z,3.30
2023-05-09T06:15:43.991Z,3.40
2023-05-09T06:18:10.916Z,2.83
2023-05-09T06:20:37.652Z,2.38
2023-05-09T06:23:04.417Z,2.58
2023-05-09T06:25:31.113Z,2.80
2023-05-09T06:27:57.810Z,2.40
2023-05-09T06:30:26.683Z,2.80
2023-05-09T06:32:54.794Z,2.80
2023-05-09T06:35:21.778Z,3.00
2023-05-09T06:37:49.160Z,3.15
2023-05-09T06:40:17.037Z,3.03
2023-05-09T06:42:44.307Z,2.55
2023-05-09T06:45:11.614Z,2.55
2023-05-09T06:47:38.644Z,2.95
2023-05-09T06:50:05.926Z,2.67
2023-05-09T06:52:32.661Z,2.90
2023-05-09T06:54:59.398Z,2.55
2023-05-09T06:57:26.157Z,2.25
2023-05-09T06:59:52.982Z,2.50
2023-05-09T07:02:19.745Z,1.92
2023-05-09T07:04:46.620Z,1.70
2023-05-09T07:07:13.401Z,1.60
2023-05-09T07:09:40.152Z,1.80
2023-05-09T07:12:07.032Z,1.38
2023-05-09T07:14:33.766Z,1.45
2023-05-09T07:17:18.139Z,1.23
2023-05-09T07:19:47.068Z,1.65
2023-05-09T07:22:13.836Z,1.48
2023-05-09T07:24:40.577Z,1.50
2023-05-09T07:27:07.303Z,1.50
2023-05-09T07:29:34.021Z,1.63
2023-05-09T07:32:00.918Z,1.83
2023-05-09T07:34:27.703Z,1.77
2023-05-09T07:36:54.462Z,1.55
2023-05-09T07:39:21.187Z,1.38
2023-05-09T07:41:48.789Z,1.52
2023-05-09T07:44:15.995Z,2.10
2023-05-09T07:46:42.989Z,1.98
2023-05-09T07:49:09.826Z,1.70
2023-05-09T07:51:36.679Z,2.00
2023-05-09T07:54:03.529Z,1.95
2023-05-09T07:56:30.449Z,2.08
2023-05-09T07:58:57.228Z,1.92
2023-05-09T08:01:23.983Z,1.90
2023-05-09T08:03:50.837Z,2.05
2023-05-09T08:06:17.721Z,2.17
2023-05-09T08:08:44.470Z,1.75
2023-05-09T08:11:11.678Z,1.42
2023-05-09T08:13:39.470Z,1.60
2023-05-09T08:16:06.677Z,1.90
2023-05-09T08:18:33.362Z,1.70
2023-05-09T08:21:00.998Z,1.70
2023-05-09T08:23:28.007Z,1.55
2023-05-09T08:25:55.183Z,1.42
2023-05-09T08:28:24.135Z,1.50
2023-05-09T08:30:52.007Z,1.80
2023-05-09T08:33:18.959Z,1.50
2023-05-09T08:35:45.955Z,1.33
2023-05-09T08:38:12.717Z,1.73
2023-05-09T08:40:41.439Z,2.47
2023-05-09T08:43:08.800Z,1.20
2023-05-09T08:45:39.080Z,1.30
2023-05-09T08:50:35.441Z,1.20
2023-05-09T08:53:02.355Z,1.02
2023-05-09T08:55:29.483Z,1.10
2023-05-09T08:57:57.626Z,1.17
2023-05-09T09:00:26.282Z,1.23
2023-05-09T09:02:54.261Z,1.20
2023-05-09T09:05:40.230Z,1.10
2023-05-09T09:08:10.912Z,1.30
2023-05-09T09:10:42.843Z,1.20
2023-05-09T09:13:11.448Z,1.10
2023-05-09T09:15:40.574Z,1.23
2023-05-09T09:18:16.229Z,1.30
2023-05-09T09:20:49.976Z,1.20
2023-05-09T09:23:23.380Z,1.30
2023-05-09T09:26:01.502Z,1.00
2023-05-09T09:28:28.856Z,1.10
2023-05-09T09:30:56.075Z,0.82
2023-05-09T09:33:24.160Z,1.25
2023-05-09T09:35:52.405Z,1.15
2023-05-09T09:38:20.704Z,1.40
2023-05-09T09:40:58.560Z,0.85
2023-05-09T09:43:30.152Z,0.77
2023-05-09T09:45:57.803Z,0.90
2023-05-09T09:48:32.267Z,0.90
2023-05-09T09:51:07.826Z,1.10
2023-05-09T09:53:40.054Z,1.30
2023-05-09T09:56:08.063Z,1.00
2023-05-09T09:58:34.884Z,1.08
2023-05-09T10:01:09.363Z,1.10
2023-05-09T10:03:41.485Z,0.93
2023-05-09T10:06:13.025Z,0.90
2023-05-09T10:08:41.156Z,0.80
2023-05-09T10:11:09.180Z,0.75
2023-05-09T10:13:38.291Z,1.00
2023-05-09T10:16:06.266Z,0.90
2023-05-09T10:18:34.361Z,0.90
2023-05-09T10:21:03.389Z,0.68
2023-05-09T10:23:31.661Z,0.93
2023-05-09T10:26:29.151Z,0.80
2023-05-09T10:28:57.934Z,0.70
2023-05-09T10:31:29.663Z,1.00
2023-05-09T10:34:01.731Z,0.60
2023-05-09T10:36:28.589Z,0.80
2023-05-09T10:38:56.300Z,0.73
2023-05-09T10:41:24.044Z,0.70
2023-05-09T10:43:51.141Z,0.75
2023-05-09T10:46:18.382Z,0.90
2023-05-09T10:48:45.603Z,0.60
2023-05-09T10:51:13.072Z,0.80
2023-05-09T10:53:48.667Z,1.15
2023-05-09T10:56:26.826Z,0.70
2023-05-09T10:58:54.546Z,0.60
2023-05-09T11:01:37.860Z,0.50
2023-05-09T11:04:11.679Z,0.75
2023-05-09T11:06:45.138Z,0.65
2023-05-09T11:09:31.514Z,0.73
2023-05-09T11:12:07.410Z,0.60
2023-05-09T11:14:39.220Z,0.60
2023-05-09T11:17:14.440Z,0.68
2023-05-09T11:19:47.356Z,0.80
2023-05-09T11:22:27.535Z,0.82
2023-05-09T11:27:43.256Z,0.65
2023-05-09T11:30:12.636Z,0.73
2023-05-09T11:32:55.472Z,0.60
2023-05-09T11:35:23.494Z,0.65
2023-05-09T11:37:51.324Z,0.73
2023-05-09T11:40:22.482Z,0.70
2023-05-09T11:42:55.488Z,0.60
2023-05-09T11:45:26.989Z,0.60
2023-05-09T11:47:54.329Z,0.70
2023-05-09T11:50:21.707Z,0.70
2023-05-09T11:52:49.363Z,0.80
2023-05-09T11:55:19.332Z,0.63
2023-05-09T11:57:51.752Z,0.60
2023-05-09T12:00:19.874Z,0.80
2023-05-09T12:02:47.177Z,0.98
2023-05-09T12:05:18.682Z,0.60
2023-05-09T12:07:46.386Z,0.60
2023-05-09T12:10:19.921Z,0.50
2023-05-09T12:12:48.869Z,0.70
2023-05-09T12:15:16.903Z,0.70
2023-05-09T12:17:45.147Z,0.50
2023-05-09T12:20:12.706Z,0.70
2023-05-09T12:22:43.577Z,0.90
2023-05-09T12:25:12.558Z,1.00
2023-05-09T12:27:41.186Z,0.70
2023-05-09T12:30:10.560Z,0.70
2023-05-09T12:32:40.167Z,0.50
2023-05-09T12:35:10.381Z,0.70
2023-05-09T12:40:11.352Z,0.77
2023-05-09T12:42:38.383Z,0.80
2023-05-09T12:45:08.508Z,0.70
2023-05-09T12:47:35.540Z,0.77
2023-05-09T12:50:04.323Z,0.70
2023-05-09T12:52:41.622Z,0.75
2023-05-09T12:55:14.580Z,0.60
2023-05-09T12:57:44.654Z,0.50
2023-05-09T13:00:12.276Z,1.00
2023-05-09T13:02:42.195Z,0.80
2023-05-09T13:05:15.912Z,0.85
2023-05-09T13:07:47.129Z,0.80
2023-05-09T13:10:15.120Z,0.70
2023-05-09T13:12:45.398Z,0.80
2023-05-09T13:15:12.869Z,0.70
2023-05-09T13:17:39.972Z,0.90
2023-05-09T13:20:07.568Z,0.88
2023-05-09T13:22:34.512Z,0.95
2023-05-09T13:25:01.616Z,0.70
2023-05-09T13:27:28.392Z,0.90
2023-05-09T13:29:55.095Z,0.77
2023-05-09T13:32:21.865Z,0.90
2023-05-09T13:34:48.512Z,0.80
2023-05-09T13:37:15.301Z,0.98
2023-05-09T13:39:41.992Z,0.80
2023-05-09T13:42:08.898Z,0.90
2023-05-09T13:44:35.678Z,0.80
2023-05-09T13:47:02.787Z,1.00
2023-05-09T13:49:29.610Z,1.00
2023-05-09T13:51:56.272Z,1.08
2023-05-09T13:54:23.164Z,1.10
2023-05-09T13:56:51.235Z,1.08
2023-05-09T13:59:18.272Z,1.30
2023-05-09T14:01:45.011Z,0.88
2023-05-09T14:04:12.880Z,1.15
2023-05-09T14:06:39.595Z,1.02
2023-05-09T14:09:07.222Z,1.17
2023-05-09T14:11:33.900Z,1.20
2023-05-09T14:14:00.598Z,1.35
2023-05-09T14:16:27.340Z,1.25
2023-05-09T14:18:54.120Z,1.30
2023-05-09T14:21:21.372Z,1.45
2023-05-09T14:23:49.551Z,1.48
2023-05-09T14:26:16.300Z,1.48
2023-05-09T14:28:44.287Z,1.30
2023-05-09T14:31:11.166Z,1.40
2023-05-09T14:33:38.575Z,1.30
2023-05-09T14:36:06.123Z,1.60
2023-05-09T14:38:33.357Z,1.77
2023-05-09T14:41:02.189Z,2.35
2023-05-09T14:43:29.052Z,2.90
2023-05-09T14:45:56.290Z,3.00
2023-05-09T14:48:22.928Z,2.72
2023-05-09T14:50:50.248Z,2.63
2023-05-09T14:53:16.880Z,2.75
2023-05-09T14:55:43.612Z,2.60
2023-05-09T14:58:13.324Z,1.98
2023-05-09T15:00:40.059Z,0.73
2023-05-09T15:03:06.861Z,0.77
2023-05-09T15:05:33.555Z,0.70
2023-05-09T15:08:00.323Z,0.60
2023-05-09T15:10:27.799Z,0.68
2023-05-09T15:12:55.262Z,0.75
2023-05-09T15:15:25.817Z,1.00
2023-05-09T15:17:53.457Z,0.70
2023-05-09T15:20:20.355Z,0.82
2023-05-09T15:22:49.062Z,0.80
2023-05-09T15:25:16.786Z,0.55
2023-05-09T15:27:43.623Z,0.68
2023-05-09T15:30:10.936Z,0.70
2023-05-09T15:32:40.944Z,0.60
2023-05-09T15:37:35.933Z,0.75
2023-05-09T15:40:03.104Z,0.68
2023-05-09T15:42:30.008Z,0.70
2023-05-09T15:44:57.174Z,0.82
2023-05-09T15:47:24.178Z,0.90
2023-05-09T15:49:50.897Z,0.90
2023-05-09T15:52:18.076Z,0.80
2023-05-09T15:54:45.346Z,0.80
2023-05-09T15:57:13.368Z,0.98
2023-05-09T15:59:40.200Z,0.90
2023-05-09T16:02:07.197Z,0.80
2023-05-09T16:04:34.269Z,1.00
2023-05-09T16:07:03.809Z,1.00
2023-05-09T16:09:30.548Z,0.95
2023-05-09T16:11:57.237Z,1.10
2023-05-09T16:14:23.963Z,1.40
2023-05-09T16:16:52.446Z,0.85
2023-05-09T16:19:19.297Z,1.17
2023-05-09T16:21:46.446Z,1.40
2023-05-09T16:24:13.234Z,0.93
2023-05-09T16:26:39.913Z,0.88
2023-05-09T16:29:06.589Z,1.15
2023-05-09T16:31:35.522Z,1.20
2023-05-09T16:34:02.850Z,1.10
2023-05-09T16:36:29.988Z,1.35
2023-05-09T16:38:56.708Z,1.20
2023-05-09T16:41:23.449Z,1.27
2023-05-09T16:43:50.141Z,1.55
2023-05-09T16:46:16.977Z,0.95
2023-05-09T16:48:43.715Z,1.92
2023-05-09T16:51:10.458Z,1.02
2023-05-09T16:53:37.155Z,1.17
2023-05-09T16:56:04.677Z,1.20
2023-05-09T16:58:31.403Z,1.45
2023-05-09T17:01:00.370Z,1.42
2023-05-09T17:03:27.020Z,1.40
2023-05-09T17:05:53.708Z,1.40
2023-05-09T17:08:20.406Z,1.10
2023-05-09T17:10:47.026Z,1.20
2023-05-09T17:13:13.651Z,1.63
2023-05-09T17:15:40.445Z,2.35
2023-05-09T17:18:07.217Z,2.30
2023-05-09T17:20:33.854Z,1.30
2023-05-09T17:23:00.618Z,1.60
2023-05-09T17:25:27.533Z,1.50
2023-05-09T17:27:54.279Z,1.33
2023-05-09T17:30:23.216Z,1.70
2023-05-09T17:32:50.307Z,1.30
2023-05-09T17:35:19.417Z,1.30
2023-05-09T17:37:46.372Z,1.27
2023-05-09T17:40:13.512Z,2.10
2023-05-09T17:42:41.766Z,1.33
2023-05-09T17:45:11.308Z,1.80
2023-05-09T17:47:39.198Z,1.50
2023-05-09T17:50:07.203Z,1.13
2023-05-09T17:52:34.312Z,1.90
2023-05-09T17:55:01.845Z,2.42
2023-05-09T17:57:28.616Z,2.25
2023-05-09T17:59:55.468Z,1.40
2023-05-09T18:02:23.985Z,2.17
2023-05-09T18:04:51.513Z,1.80
2023-05-09T18:07:18.290Z,1.40
2023-05-09T18:09:45.349Z,0.90
2023-05-09T18:12:12.300Z,1.33
2023-05-09T18:14:39.233Z,2.00
2023-05-09T18:17:06.041Z,1.73
2023-05-09T18:19:33.762Z,1.30
2023-05-09T18:22:00.463Z,1.17
2023-05-09T18:24:27.460Z,1.30
2023-05-09T18:26:54.158Z,1.55
2023-05-09T18:29:20.888Z,1.40
2023-05-09T18:31:47.551Z,1.30
2023-05-09T18:34:14.206Z,1.00
2023-05-09T18:36:40.946Z,1.02
2023-05-09T18:39:08.822Z,1.25
2023-05-09T18:41:35.452Z,0.90
2023-05-09T18:44:02.042Z,0.90
2023-05-09T18:46:31.444Z,1.02
2023-05-09T18:48:58.055Z,1.20
2023-05-09T18:51:25.569Z,1.05
2023-05-09T18:53:52.398Z,0.82
2023-05-09T18:56:22.387Z,1.25
2023-05-09T18:58:52.552Z,1.02
2023-05-09T19:01:19.418Z,1.20
2023-05-09T19:03:47.426Z,1.10
2023-05-09T19:06:14.932Z,1.33
2023-05-09T19:08:43.311Z,1.00
2023-05-09T19:11:11.562Z,0.98
2023-05-09T19:13:42.919Z,1.00
2023-05-09T19:16:09.614Z,1.30
2023-05-09T19:18:36.254Z,1.23
2023-05-09T19:21:02.958Z,1.02
2023-05-09T19:23:30.022Z,0.80
2023-05-09T19:25:56.695Z,1.08
2023-05-09T19:28:23.462Z,0.90
2023-05-09T19:30:50.368Z,0.75
2023-05-09T19:33:17.591Z,0.80
2023-05-09T19:35:44.500Z,0.80
2023-05-09T19:38:12.073Z,0.82
2023-05-09T19:40:39.515Z,0.90
2023-05-09T19:43:06.124Z,0.80
2023-05-09T19:45:32.799Z,0.65
2023-05-09T19:47:59.658Z,0.95
2023-05-09T19:50:26.475Z,0.60
2023-05-09T19:52:53.123Z,0.63
2023-05-09T19:55:19.754Z,0.50
2023-05-09T19:57:46.974Z,0.52
2023-05-09T20:00:14.400Z,0.55
2023-05-09T20:02:41.344Z,0.65
2023-05-09T20:05:08.473Z,0.55
2023-05-09T20:07:35.086Z,0.73
2023-05-09T20:10:01.799Z,0.73
2023-05-09T20:12:30.201Z,0.68
2023-05-09T20:14:57.274Z,0.73
2023-05-09T20:17:24.138Z,0.55
2023-05-09T20:19:51.239Z,0.60
2023-05-09T20:22:17.968Z,0.50
2023-05-09T20:24:44.659Z,0.43
2023-05-09T20:27:11.402Z,0.52
2023-05-09T20:29:38.137Z,0.50
2023-05-09T20:32:04.940Z,0.68
2023-05-09T20:34:31.685Z,0.80
2023-05-09T20:36:58.349Z,0.60
2023-05-09T20:39:25.134Z,0.52
2023-05-09T20:41:52.182Z,0.82
2023-05-09T20:44:19.324Z,0.70
2023-05-09T20:46:46.127Z,0.50
2023-05-09T20:49:13.143Z,0.45
2023-05-09T20:51:40.055Z,1.58
2023-05-09T20:54:06.875Z,0.70
2023-05-09T20:56:35.408Z,0.70
2023-05-09T20:59:04.101Z,0.50
2023-05-09T21:01:32.488Z,0.60
2023-05-09T21:03:59.420Z,0.50
2023-05-09T21:06:26.288Z,0.50
2023-05-09T21:08:52.996Z,0.70
2023-05-09T21:11:19.689Z,0.50
2023-05-09T21:13:46.375Z,0.55
2023-05-09T21:16:13.156Z,0.60
2023-05-09T21:18:39.878Z,0.63
2023-05-09T21:21:09.744Z,0.47
2023-05-09T21:23:36.550Z,0.30
2023-05-09T21:26:03.298Z,0.50
2023-05-09T21:28:30.050Z,0.40
2023-05-09T21:30:56.901Z,0.50
2023-05-09T21:33:23.642Z,0.30
2023-05-09T21:35:50.356Z,0.40
2023-05-09T21:38:17.072Z,0.35
2023-05-09T21:40:43.726Z,0.40
2023-05-09T21:43:10.898Z,0.40
2023-05-09T21:45:37.625Z,0.60
2023-05-09T21:48:04.613Z,0.32
2023-05-09T21:50:31.421Z,0.40
2023-05-09T21:52:58.115Z,0.30
2023-05-09T21:55:24.855Z,0.60
2023-05-09T21:57:51.901Z,0.73
2023-05-09T22:00:19.275Z,0.40
2023-05-09T22:02:46.911Z,0.30
2023-05-09T22:05:13.722Z,0.30
2023-05-09T22:07:40.399Z,0.50
2023-05-09T22:10:07.648Z,0.50
2023-05-09T22:12:34.280Z,0.47
2023-05-09T22:15:00.934Z,0.68
2023-05-09T22:17:27.613Z,0.50
2023-05-09T22:19:54.311Z,0.40
2023-05-09T22:22:21.378Z,0.43
2023-05-09T22:24:49.578Z,0.65
2023-05-09T22:27:16.325Z,0.50
2023-05-09T22:29:43.036Z,0.32
2023-05-09T22:32:09.821Z,0.40
2023-05-09T22:34:36.709Z,1.00
2023-05-09T22:37:03.607Z,0.55
2023-05-09T22:39:30.904Z,0.47
2023-05-09T22:41:57.634Z,0.50
2023-05-09T22:44:24.398Z,0.52
2023-05-09T22:46:51.170Z,0.47
2023-05-09T22:49:17.856Z,0.60
2023-05-09T22:51:44.596Z,0.73
2023-05-09T22:54:11.533Z,0.30
2023-05-09T22:56:38.243Z,0.60
2023-05-09T22:59:04.978Z,0.50
2023-05-09T23:01:32.379Z,0.50
2023-05-09T23:03:59.138Z,0.40
2023-05-09T23:06:25.979Z,0.45
2023-05-09T23:08:52.705Z,0.38
2023-05-09T23:11:20.387Z,0.40
2023-05-09T23:13:47.146Z,0.60
2023-05-09T23:16:13.886Z,0.45
2023-05-09T23:18:40.582Z,0.98
2023-05-09T23:21:07.246Z,0.50
2023-05-09T23:23:34.017Z,0.50
2023-05-09T23:26:00.688Z,0.43
2023-05-09T23:28:27.390Z,0.50
2023-05-09T23:30:54.607Z,0.60
2023-05-09T23:33:21.622Z,0.47
2023-05-09T23:35:48.515Z,0.40
2023-05-09T23:38:15.307Z,0.45
2023-05-09T23:40:45.478Z,0.50
2023-05-09T23:43:12.930Z,0.43
2023-05-09T23:45:39.785Z,0.45
2023-05-09T23:48:07.497Z,0.40
2023-05-09T23:50:34.239Z,0.35
2023-05-09T23:53:00.962Z,0.40
2023-05-09T23:55:27.822Z,0.60
2023-05-09T23:57:54.570Z,0.50
